createdAt,value
2022-10-19T00:00:40.771Z,26.3
2022-10-19T00:06:10.954Z,26.3
2022-10-19T00:11:41.071Z,26.3
2022-10-19T00:17:10.261Z,26.3
2022-10-19T00:22:40.479Z,26.3
2022-10-19T00:28:10.661Z,26.3
2022-10-19T00:33:39.944Z,26.3
2022-10-19T00:39:10.203Z,26.3
2022-10-19T00:44:39.432Z,26.3
2022-10-19T00:50:09.623Z,26.3
2022-10-19T00:55:39.843Z,26.3
2022-10-19T01:01:10.188Z,26.2
2022-10-19T01:06:40.309Z,26.3
2022-10-19T01:12:09.529Z,26.3
2022-10-19T01:17:39.661Z,26.3
2022-10-19T01:23:09.840Z,26.2
2022-10-19T01:28:39.150Z,26.2
2022-10-19T01:34:09.174Z,26.2
2022-10-19T01:39:39.369Z,26.2
2022-10-19T01:45:09.679Z,26.2
2022-10-19T01:50:39.839Z,26.2
2022-10-19T01:56:10.130Z,26.2
2022-10-19T02:01:40.355Z,26.2
2022-10-19T02:07:10.505Z,26.2
2022-10-19T02:12:39.697Z,26.2
2022-10-19T02:18:09.908Z,26.2
2022-10-19T02:23:40.076Z,26.2
2022-10-19T02:29:09.333Z,26.2
2022-10-19T02:34:39.520Z,26.2
2022-10-19T02:40:09.720Z,26.2
2022-10-19T02:45:38.927Z,26.2
2022-10-19T02:51:09.114Z,26.2
2022-10-19T02:56:38.294Z,26.2
2022-10-19T03:02:08.466Z,26.2
2022-10-19T03:07:38.676Z,26.1
2022-10-19T03:13:07.959Z,26.2
2022-10-19T03:18:38.104Z,26.1
2022-10-19T03:24:08.298Z,26.1
2022-10-19T03:29:37.454Z,26.2
2022-10-19T03:35:07.625Z,26.1
2022-10-19T03:40:37.805Z,26.1
2022-10-19T03:46:06.991Z,26.1
2022-10-19T03:51:37.168Z,26.1
2022-10-19T03:57:06.341Z,26.1
2022-10-19T04:02:36.479Z,26.1
2022-10-19T04:08:06.673Z,26.1
2022-10-19T04:13:35.857Z,26.1
2022-10-19T04:19:06.019Z,26.1
2022-10-19T04:24:36.144Z,26.1
2022-10-19T04:30:05.369Z,26.1
2022-10-19T04:35:35.522Z,26.1
2022-10-19T04:41:05.693Z,26.1
2022-10-19T04:46:34.908Z,26.1
2022-10-19T04:52:05.057Z,26.1
2022-10-19T04:57:35.756Z,26.1
2022-10-19T05:03:05.709Z,26.1
2022-10-19T05:08:35.860Z,26.1
2022-10-19T05:14:05.049Z,26
2022-10-19T05:19:35.279Z,26
2022-10-19T05:25:05.411Z,26.1
2022-10-19T05:30:34.616Z,26.1
2022-10-19T05:36:04.866Z,26.1
2022-10-19T05:41:34.052Z,26
2022-10-19T05:47:04.255Z,26
2022-10-19T05:52:34.475Z,26
2022-10-19T05:58:04.769Z,26
2022-10-19T06:03:34.963Z,26
2022-10-19T06:09:05.172Z,26
2022-10-19T06:14:34.422Z,26
2022-10-19T06:20:04.563Z,26
2022-10-19T06:25:33.809Z,26
2022-10-19T06:31:07.143Z,26
2022-10-19T06:36:34.160Z,26
2022-10-19T06:42:03.361Z,26
2022-10-19T06:47:34.017Z,26
2022-10-19T06:53:03.841Z,26
2022-10-19T06:58:34.181Z,26
2022-10-19T07:04:04.497Z,26
2022-10-19T07:09:33.722Z,26
2022-10-19T07:15:03.981Z,26.1
2022-10-19T07:20:34.112Z,26.1
2022-10-19T07:26:04.414Z,26.2
2022-10-19T07:31:34.604Z,26.2
2022-10-19T07:37:03.802Z,26.3
2022-10-19T07:42:33.957Z,26.3
2022-10-19T07:48:04.151Z,26.4
2022-10-19T07:53:33.323Z,26.5
2022-10-19T07:59:03.490Z,26.5
2022-10-19T08:05:00.170Z,26.6
2022-10-19T08:10:02.804Z,26.7
2022-10-19T08:15:32.967Z,26.8
2022-10-19T08:21:03.264Z,26.9
2022-10-19T08:26:33.399Z,27
2022-10-19T08:32:03.597Z,27
2022-10-19T08:37:44.200Z,27.1
2022-10-19T08:43:02.875Z,27.2
2022-10-19T08:48:32.966Z,27.3
2022-10-19T08:54:03.211Z,27.4
2022-10-19T08:59:33.308Z,27.5
2022-10-19T09:05:03.549Z,27.5
2022-10-19T09:10:33.747Z,27.6
2022-10-19T09:16:03.818Z,27.7
2022-10-19T09:21:40.908Z,27.7
2022-10-19T09:27:04.114Z,27.8
2022-10-19T09:32:34.469Z,27.9
2022-10-19T09:38:04.373Z,28
2022-10-19T09:43:34.465Z,28
2022-10-19T09:49:04.504Z,28.1
2022-10-19T09:54:34.719Z,28.1
2022-10-19T10:00:04.795Z,28.2
2022-10-19T10:05:34.913Z,28.2
2022-10-19T10:11:04.948Z,28.3
2022-10-19T10:16:34.993Z,28.3
2022-10-19T10:22:03.978Z,28.4
2022-10-19T10:27:34.439Z,28.4
2022-10-19T10:33:13.236Z,28.5
2022-10-19T10:38:34.165Z,28.5
2022-10-19T10:44:05.029Z,28.6
2022-10-19T10:49:34.192Z,28.6
2022-10-19T10:55:04.353Z,28.6
2022-10-19T11:00:34.364Z,28.6
2022-10-19T11:06:04.389Z,28.6
2022-10-19T11:11:34.516Z,28.6
2022-10-19T11:17:04.640Z,28.7
2022-10-19T11:22:35.183Z,28.7
2022-10-19T11:28:04.867Z,28.7
2022-10-19T11:33:34.954Z,28.8
2022-10-19T11:39:05.111Z,28.8
2022-10-19T11:44:35.138Z,28.8
2022-10-19T11:50:05.303Z,28.8
2022-10-19T11:55:35.402Z,28.9
2022-10-19T12:01:05.309Z,28.9
2022-10-19T12:06:35.364Z,28.9
2022-10-19T12:12:05.567Z,29
2022-10-19T12:17:35.776Z,28.9
2022-10-19T12:23:04.553Z,29
2022-10-19T12:28:34.592Z,29
2022-10-19T12:34:04.543Z,29
2022-10-19T12:39:34.652Z,29
2022-10-19T12:45:04.664Z,29.1
2022-10-19T12:50:37.715Z,29.1
2022-10-19T12:56:04.844Z,29.1
2022-10-19T13:01:34.862Z,29.1
2022-10-19T13:07:04.851Z,29.1
2022-10-19T13:12:35.237Z,29
2022-10-19T13:18:04.963Z,29
2022-10-19T13:23:35.076Z,28.9
2022-10-19T13:29:05.124Z,28.9
2022-10-19T13:34:35.165Z,28.8
2022-10-19T13:40:05.261Z,28.8
2022-10-19T13:45:35.287Z,28.7
2022-10-19T13:51:05.522Z,28.6
2022-10-19T13:56:35.598Z,28.5
2022-10-19T14:02:05.758Z,28.5
2022-10-19T14:07:36.206Z,28.4
2022-10-19T14:13:05.895Z,28.3
2022-10-19T14:18:36.057Z,28.3
2022-10-19T14:24:06.115Z,28.2
2022-10-19T14:29:36.109Z,28.2
2022-10-19T14:35:06.246Z,28.1
2022-10-19T14:40:36.301Z,28.1
2022-10-19T14:46:06.295Z,28
2022-10-19T14:51:36.446Z,28
2022-10-19T14:57:06.501Z,27.9
2022-10-19T15:02:37.127Z,27.8
2022-10-19T15:08:06.685Z,27.8
2022-10-19T15:13:36.896Z,27.8
2022-10-19T15:19:05.985Z,27.8
2022-10-19T15:24:36.057Z,27.8
2022-10-19T15:30:06.169Z,27.8
2022-10-19T15:35:36.371Z,27.7
2022-10-19T15:41:06.438Z,27.7
2022-10-19T15:46:35.714Z,27.7
2022-10-19T15:52:05.618Z,27.6
2022-10-19T15:57:35.975Z,27.6
2022-10-19T16:03:05.942Z,27.6
2022-10-19T16:08:36.023Z,27.5
2022-10-19T16:14:05.271Z,27.5
2022-10-19T16:19:35.352Z,27.5
2022-10-19T16:25:05.413Z,27.4
2022-10-19T16:30:34.549Z,27.4
2022-10-19T16:36:04.697Z,27.4
2022-10-19T16:41:34.816Z,27.3
2022-10-19T16:47:05.029Z,27.3
2022-10-19T16:52:35.493Z,27.3
2022-10-19T16:58:05.341Z,27.3
2022-10-19T17:03:35.601Z,27.3
2022-10-19T17:14:36.096Z,27.2
2022-10-19T17:20:06.223Z,27.2
2022-10-19T17:25:36.431Z,27.2
2022-10-19T17:31:06.632Z,27.1
2022-10-19T17:36:36.891Z,27.1
2022-10-19T17:42:07.042Z,27.1
2022-10-19T17:47:37.544Z,27.1
2022-10-19T17:53:07.406Z,27.1
2022-10-19T17:58:39.872Z,27.1
2022-10-19T18:04:07.863Z,27.1
2022-10-19T18:09:37.995Z,27.1
2022-10-19T18:15:07.211Z,27
2022-10-19T18:20:37.351Z,27
2022-10-19T18:26:07.454Z,27
2022-10-19T18:31:36.760Z,27
2022-10-19T18:37:06.873Z,27
2022-10-19T18:42:37.627Z,27
2022-10-19T18:48:07.300Z,26.9
2022-10-19T18:53:37.450Z,26.9
2022-10-19T18:59:07.856Z,26.9
2022-10-19T19:04:38.056Z,26.9
2022-10-19T19:10:08.200Z,26.9
2022-10-19T19:15:38.504Z,26.9
2022-10-19T19:21:08.702Z,26.9
2022-10-19T19:26:37.863Z,26.9
2022-10-19T19:32:08.008Z,26.9
2022-10-19T19:37:38.481Z,26.8
2022-10-19T19:43:08.574Z,26.9
2022-10-19T19:48:38.730Z,26.9
2022-10-19T19:54:08.911Z,26.8
2022-10-19T19:59:39.206Z,26.8
2022-10-19T20:05:09.385Z,26.8
2022-10-19T20:10:39.725Z,26.8
2022-10-19T20:16:09.866Z,26.8
2022-10-19T20:21:40.076Z,26.8
2022-10-19T20:27:09.265Z,26.8
2022-10-19T20:32:39.414Z,26.8
2022-10-19T20:38:09.608Z,26.8
2022-10-19T20:43:38.810Z,26.8
2022-10-19T20:49:08.935Z,26.8
2022-10-19T20:54:39.227Z,26.8
2022-10-19T21:00:09.387Z,26.8
2022-10-19T21:05:39.561Z,26.8
2022-10-19T21:11:09.859Z,26.8
2022-10-19T21:16:40.054Z,26.7
2022-10-19T21:22:10.196Z,26.8
2022-10-19T21:27:39.353Z,26.7
2022-10-19T21:33:09.566Z,26.7
2022-10-19T21:38:38.747Z,26.7
2022-10-19T21:44:07.944Z,26.7
2022-10-19T21:49:38.121Z,26.7
2022-10-19T21:55:07.272Z,26.7
2022-10-19T22:00:37.449Z,26.7
2022-10-19T22:06:07.642Z,26.7
2022-10-19T22:11:37.882Z,26.7
2022-10-19T22:17:08.061Z,26.7
2022-10-19T22:22:37.618Z,26.7
2022-10-19T22:28:07.429Z,26.7
2022-10-19T22:33:37.565Z,26.7
2022-10-19T22:39:06.752Z,26.6
2022-10-19T22:44:36.879Z,26.6
2022-10-19T22:50:07.004Z,26.6
2022-10-19T22:55:37.305Z,26.6
2022-10-19T23:01:07.469Z,26.6
2022-10-19T23:06:36.599Z,26.6
2022-10-19T23:12:06.781Z,26.6
2022-10-19T23:17:37.544Z,26.6
2022-10-19T23:23:06.189Z,26.6
2022-10-19T23:28:36.429Z,26.6
2022-10-19T23:34:06.532Z,26.6
2022-10-19T23:39:36.815Z,26.6
2022-10-19T23:45:07.021Z,26.6
2022-10-19T23:50:37.279Z,26.6
2022-10-19T23:56:07.415Z,26.6
